sensor_id;sensor_type;location;lat;lon;timestamp;P1;durP1;ratioP1;P2;durP2;ratioP2
41059;SDS011;26811;53.160;8.202;2023-08-17T00:04:04;8.80;;;2.92;;
41059;SDS011;26811;53.160;8.202;2023-08-17T00:09:05;13.93;;;3.00;;
41059;SDS011;26811;53.160;8.202;2023-08-17T00:14:06;9.65;;;2.97;;
41059;SDS011;26811;53.160;8.202;2023-08-17T00:19:06;10.68;;;3.33;;
41059;SDS011;26811;53.160;8.202;2023-08-17T00:24:07;3.72;;;3.05;;
41059;SDS011;26811;53.160;8.202;2023-08-17T00:29:08;13.43;;;3.30;;
41059;SDS011;26811;53.160;8.202;2023-08-17T00:34:09;13.85;;;3.53;;
41059;SDS011;26811;53.160;8.202;2023-08-17T00:39:09;8.48;;;3.22;;
41059;SDS011;26811;53.160;8.202;2023-08-17T00:44:10;9.52;;;3.28;;
41059;SDS011;26811;53.160;8.202;2023-08-17T00:49:10;15.82;;;3.45;;
41059;SDS011;26811;53.160;8.202;2023-08-17T00:54:11;8.63;;;3.78;;
41059;SDS011;26811;53.160;8.202;2023-08-17T00:59:12;12.35;;;3.28;;
41059;SDS011;26811;53.160;8.202;2023-08-17T01:04:13;9.05;;;3.33;;
41059;SDS011;26811;53.160;8.202;2023-08-17T01:09:13;10.88;;;2.88;;
41059;SDS011;26811;53.160;8.202;2023-08-17T01:14:25;9.27;;;2.80;;
41059;SDS011;26811;53.160;8.202;2023-08-17T01:19:31;10.18;;;3.25;;
41059;SDS011;26811;53.160;8.202;2023-08-17T01:24:35;11.23;;;3.25;;
41059;SDS011;26811;53.160;8.202;2023-08-17T01:29:36;11.52;;;3.35;;
41059;SDS011;26811;53.160;8.202;2023-08-17T01:34:39;11.93;;;3.35;;
41059;SDS011;26811;53.160;8.202;2023-08-17T01:39:44;6.80;;;3.10;;
41059;SDS011;26811;53.160;8.202;2023-08-17T01:44:50;10.15;;;3.28;;
41059;SDS011;26811;53.160;8.202;2023-08-17T01:49:51;9.70;;;3.38;;
41059;SDS011;26811;53.160;8.202;2023-08-17T01:54:52;11.18;;;3.22;;
41059;SDS011;26811;53.160;8.202;2023-08-17T01:59:52;8.57;;;3.33;;
41059;SDS011;26811;53.160;8.202;2023-08-17T02:04:53;9.02;;;3.10;;
41059;SDS011;26811;53.160;8.202;2023-08-17T02:09:53;9.98;;;3.30;;
41059;SDS011;26811;53.160;8.202;2023-08-17T02:14:54;12.52;;;3.55;;
41059;SDS011;26811;53.160;8.202;2023-08-17T02:19:54;9.13;;;3.25;;
41059;SDS011;26811;53.160;8.202;2023-08-17T02:24:55;10.35;;;3.30;;
41059;SDS011;26811;53.160;8.202;2023-08-17T02:29:55;7.75;;;3.15;;
41059;SDS011;26811;53.160;8.202;2023-08-17T02:34:56;8.93;;;3.13;;
41059;SDS011;26811;53.160;8.202;2023-08-17T02:39:57;9.20;;;3.35;;
41059;SDS011;26811;53.160;8.202;2023-08-17T02:44:57;15.48;;;3.55;;
41059;SDS011;26811;53.160;8.202;2023-08-17T02:49:58;15.93;;;3.50;;
41059;SDS011;26811;53.160;8.202;2023-08-17T02:54:59;19.75;;;3.45;;
41059;SDS011;26811;53.160;8.202;2023-08-17T02:59:59;8.32;;;2.95;;
41059;SDS011;26811;53.160;8.202;2023-08-17T03:05:00;11.75;;;2.85;;
41059;SDS011;26811;53.160;8.202;2023-08-17T03:10:00;8.73;;;3.13;;
41059;SDS011;26811;53.160;8.202;2023-08-17T03:15:01;7.63;;;2.95;;
41059;SDS011;26811;53.160;8.202;2023-08-17T03:20:01;10.27;;;3.28;;
41059;SDS011;26811;53.160;8.202;2023-08-17T03:25:02;5.70;;;2.85;;
41059;SDS011;26811;53.160;8.202;2023-08-17T03:30:04;8.25;;;2.92;;
41059;SDS011;26811;53.160;8.202;2023-08-17T03:35:07;12.70;;;3.22;;
41059;SDS011;26811;53.160;8.202;2023-08-17T03:40:08;9.55;;;3.10;;
41059;SDS011;26811;53.160;8.202;2023-08-17T03:45:09;10.32;;;3.15;;
41059;SDS011;26811;53.160;8.202;2023-08-17T03:50:09;11.02;;;3.53;;
41059;SDS011;26811;53.160;8.202;2023-08-17T03:55:13;9.55;;;3.38;;
41059;SDS011;26811;53.160;8.202;2023-08-17T04:00:13;9.40;;;3.53;;
41059;SDS011;26811;53.160;8.202;2023-08-17T04:05:14;8.77;;;3.17;;
41059;SDS011;26811;53.160;8.202;2023-08-17T04:10:14;8.55;;;2.78;;
41059;SDS011;26811;53.160;8.202;2023-08-17T04:15:15;6.90;;;2.78;;
41059;SDS011;26811;53.160;8.202;2023-08-17T04:20:16;5.07;;;2.53;;
41059;SDS011;26811;53.160;8.202;2023-08-17T04:25:18;6.00;;;2.72;;
41059;SDS011;26811;53.160;8.202;2023-08-17T04:30:19;8.73;;;2.80;;
41059;SDS011;26811;53.160;8.202;2023-08-17T04:35:20;9.65;;;2.70;;
41059;SDS011;26811;53.160;8.202;2023-08-17T04:40:20;4.90;;;2.88;;
41059;SDS011;26811;53.160;8.202;2023-08-17T04:45:21;9.77;;;2.90;;
41059;SDS011;26811;53.160;8.202;2023-08-17T04:50:22;10.90;;;2.70;;
41059;SDS011;26811;53.160;8.202;2023-08-17T04:55:22;15.10;;;3.53;;
41059;SDS011;26811;53.160;8.202;2023-08-17T05:00:23;10.98;;;2.92;;
41059;SDS011;26811;53.160;8.202;2023-08-17T05:05:27;8.00;;;2.78;;
41059;SDS011;26811;53.160;8.202;2023-08-17T05:10:28;5.97;;;2.30;;
41059;SDS011;26811;53.160;8.202;2023-08-17T05:15:28;9.20;;;2.80;;
41059;SDS011;26811;53.160;8.202;2023-08-17T05:20:29;9.55;;;3.22;;
41059;SDS011;26811;53.160;8.202;2023-08-17T05:25:30;7.97;;;2.95;;
41059;SDS011;26811;53.160;8.202;2023-08-17T05:30:31;10.55;;;3.20;;
41059;SDS011;26811;53.160;8.202;2023-08-17T05:35:32;8.45;;;2.80;;
41059;SDS011;26811;53.160;8.202;2023-08-17T05:40:33;8.90;;;3.03;;
41059;SDS011;26811;53.160;8.202;2023-08-17T05:45:33;9.85;;;2.97;;
41059;SDS011;26811;53.160;8.202;2023-08-17T05:50:36;11.45;;;3.42;;
41059;SDS011;26811;53.160;8.202;2023-08-17T05:55:37;8.38;;;3.13;;
41059;SDS011;26811;53.160;8.202;2023-08-17T06:00:37;8.77;;;3.40;;
41059;SDS011;26811;53.160;8.202;2023-08-17T06:05:39;11.10;;;3.40;;
41059;SDS011;26811;53.160;8.202;2023-08-17T06:10:39;10.25;;;3.53;;
41059;SDS011;26811;53.160;8.202;2023-08-17T06:15:40;6.88;;;3.25;;
41059;SDS011;26811;53.160;8.202;2023-08-17T06:20:40;7.78;;;3.13;;
41059;SDS011;26811;53.160;8.202;2023-08-17T06:25:41;14.93;;;3.67;;
41059;SDS011;26811;53.160;8.202;2023-08-17T06:30:42;12.18;;;3.50;;
41059;SDS011;26811;53.160;8.202;2023-08-17T06:35:42;9.45;;;3.80;;
41059;SDS011;26811;53.160;8.202;2023-08-17T06:40:43;10.23;;;4.20;;
41059;SDS011;26811;53.160;8.202;2023-08-17T06:45:45;9.33;;;3.80;;
41059;SDS011;26811;53.160;8.202;2023-08-17T06:50:45;12.95;;;4.35;;
41059;SDS011;26811;53.160;8.202;2023-08-17T06:55:46;10.68;;;3.53;;
41059;SDS011;26811;53.160;8.202;2023-08-17T07:00:46;12.93;;;3.83;;
41059;SDS011;26811;53.160;8.202;2023-08-17T07:05:47;9.13;;;3.95;;
41059;SDS011;26811;53.160;8.202;2023-08-17T07:10:48;11.05;;;4.00;;
41059;SDS011;26811;53.160;8.202;2023-08-17T07:15:49;8.43;;;4.00;;
41059;SDS011;26811;53.160;8.202;2023-08-17T07:20:49;9.07;;;3.30;;
41059;SDS011;26811;53.160;8.202;2023-08-17T07:25:50;10.32;;;3.67;;
41059;SDS011;26811;53.160;8.202;2023-08-17T07:30:50;5.00;;;2.97;;
41059;SDS011;26811;53.160;8.202;2023-08-17T07:35:51;5.65;;;3.20;;
41059;SDS011;26811;53.160;8.202;2023-08-17T07:40:54;8.20;;;3.57;;
41059;SDS011;26811;53.160;8.202;2023-08-17T07:45:55;10.37;;;3.77;;
41059;SDS011;26811;53.160;8.202;2023-08-17T07:50:56;8.70;;;4.00;;
41059;SDS011;26811;53.160;8.202;2023-08-17T07:55:57;10.23;;;3.70;;
41059;SDS011;26811;53.160;8.202;2023-08-17T08:01:00;9.38;;;4.28;;
41059;SDS011;26811;53.160;8.202;2023-08-17T08:06:00;10.25;;;4.65;;
41059;SDS011;26811;53.160;8.202;2023-08-17T08:11:01;15.57;;;5.63;;
41059;SDS011;26811;53.160;8.202;2023-08-17T08:16:04;13.82;;;5.55;;
41059;SDS011;26811;53.160;8.202;2023-08-17T08:21:05;15.48;;;5.45;;
41059;SDS011;26811;53.160;8.202;2023-08-17T08:26:06;9.70;;;5.45;;
41059;SDS011;26811;53.160;8.202;2023-08-17T08:31:06;11.25;;;5.70;;
41059;SDS011;26811;53.160;8.202;2023-08-17T08:36:07;8.60;;;5.97;;
41059;SDS011;26811;53.160;8.202;2023-08-17T08:41:07;13.43;;;6.07;;
41059;SDS011;26811;53.160;8.202;2023-08-17T08:46:09;13.45;;;6.63;;
41059;SDS011;26811;53.160;8.202;2023-08-17T08:51:11;13.15;;;6.10;;
41059;SDS011;26811;53.160;8.202;2023-08-17T08:56:16;14.13;;;6.20;;
41059;SDS011;26811;53.160;8.202;2023-08-17T09:01:21;13.93;;;6.60;;
41059;SDS011;26811;53.160;8.202;2023-08-17T09:06:21;12.23;;;6.07;;
41059;SDS011;26811;53.160;8.202;2023-08-17T09:11:25;11.50;;;6.90;;
41059;SDS011;26811;53.160;8.202;2023-08-17T09:16:27;13.90;;;6.85;;
41059;SDS011;26811;53.160;8.202;2023-08-17T09:21:32;12.97;;;6.90;;
41059;SDS011;26811;53.160;8.202;2023-08-17T09:26:33;16.65;;;6.65;;
41059;SDS011;26811;53.160;8.202;2023-08-17T09:31:33;9.75;;;6.75;;
41059;SDS011;26811;53.160;8.202;2023-08-17T09:36:38;11.50;;;5.97;;
41059;SDS011;26811;53.160;8.202;2023-08-17T09:41:42;11.60;;;6.63;;
41059;SDS011;26811;53.160;8.202;2023-08-17T09:46:43;12.57;;;6.13;;
41059;SDS011;26811;53.160;8.202;2023-08-17T09:51:44;10.82;;;6.10;;
41059;SDS011;26811;53.160;8.202;2023-08-17T09:56:45;8.85;;;6.20;;
41059;SDS011;26811;53.160;8.202;2023-08-17T10:01:49;9.57;;;6.18;;
41059;SDS011;26811;53.160;8.202;2023-08-17T10:06:51;16.02;;;6.55;;
41059;SDS011;26811;53.160;8.202;2023-08-17T10:12:05;9.70;;;6.20;;
41059;SDS011;26811;53.160;8.202;2023-08-17T10:17:11;11.40;;;6.38;;
41059;SDS011;26811;53.160;8.202;2023-08-17T10:22:17;8.90;;;6.55;;
41059;SDS011;26811;53.160;8.202;2023-08-17T10:27:23;11.10;;;5.30;;
41059;SDS011;26811;53.160;8.202;2023-08-17T10:32:25;10.52;;;4.95;;
41059;SDS011;26811;53.160;8.202;2023-08-17T10:37:27;11.90;;;5.07;;
41059;SDS011;26811;53.160;8.202;2023-08-17T10:42:32;10.50;;;5.27;;
41059;SDS011;26811;53.160;8.202;2023-08-17T10:47:36;11.68;;;5.20;;
41059;SDS011;26811;53.160;8.202;2023-08-17T10:52:37;5.60;;;5.03;;
41059;SDS011;26811;53.160;8.202;2023-08-17T10:57:41;9.43;;;5.47;;
41059;SDS011;26811;53.160;8.202;2023-08-17T11:02:43;12.50;;;5.40;;
41059;SDS011;26811;53.160;8.202;2023-08-17T11:07:44;7.73;;;4.60;;
41059;SDS011;26811;53.160;8.202;2023-08-17T11:12:45;4.57;;;3.90;;
41059;SDS011;26811;53.160;8.202;2023-08-17T11:17:45;5.63;;;3.85;;
41059;SDS011;26811;53.160;8.202;2023-08-17T11:22:46;7.00;;;3.55;;
41059;SDS011;26811;53.160;8.202;2023-08-17T11:27:47;5.82;;;3.10;;
41059;SDS011;26811;53.160;8.202;2023-08-17T11:32:50;4.25;;;3.10;;
41059;SDS011;26811;53.160;8.202;2023-08-17T11:37:52;5.10;;;3.03;;
41059;SDS011;26811;53.160;8.202;2023-08-17T11:42:53;3.97;;;2.55;;
41059;SDS011;26811;53.160;8.202;2023-08-17T11:47:53;4.95;;;2.83;;
41059;SDS011;26811;53.160;8.202;2023-08-17T11:52:54;9.93;;;3.22;;
41059;SDS011;26811;53.160;8.202;2023-08-17T11:57:55;6.38;;;3.35;;
41059;SDS011;26811;53.160;8.202;2023-08-17T12:02:55;6.72;;;3.35;;
41059;SDS011;26811;53.160;8.202;2023-08-17T12:07:56;6.55;;;3.50;;
41059;SDS011;26811;53.160;8.202;2023-08-17T12:12:57;5.25;;;3.15;;
41059;SDS011;26811;53.160;8.202;2023-08-17T12:18:02;8.35;;;3.60;;
41059;SDS011;26811;53.160;8.202;2023-08-17T12:23:05;10.02;;;3.35;;
41059;SDS011;26811;53.160;8.202;2023-08-17T12:28:05;8.27;;;3.58;;
41059;SDS011;26811;53.160;8.202;2023-08-17T12:33:06;6.28;;;3.38;;
41059;SDS011;26811;53.160;8.202;2023-08-17T12:38:06;6.03;;;3.53;;
41059;SDS011;26811;53.160;8.202;2023-08-17T12:43:08;7.78;;;3.55;;
41059;SDS011;26811;53.160;8.202;2023-08-17T12:48:08;9.35;;;3.88;;
41059;SDS011;26811;53.160;8.202;2023-08-17T12:53:09;5.22;;;3.55;;
41059;SDS011;26811;53.160;8.202;2023-08-17T12:58:09;3.58;;;3.28;;
41059;SDS011;26811;53.160;8.202;2023-08-17T13:03:10;6.10;;;2.92;;
41059;SDS011;26811;53.160;8.202;2023-08-17T13:08:10;8.07;;;3.20;;
41059;SDS011;26811;53.160;8.202;2023-08-17T13:13:11;7.18;;;3.15;;
41059;SDS011;26811;53.160;8.202;2023-08-17T13:18:12;4.72;;;3.10;;
41059;SDS011;26811;53.160;8.202;2023-08-17T13:23:12;3.63;;;2.80;;
41059;SDS011;26811;53.160;8.202;2023-08-17T13:28:13;5.00;;;3.63;;
41059;SDS011;26811;53.160;8.202;2023-08-17T13:33:13;7.07;;;3.50;;
41059;SDS011;26811;53.160;8.202;2023-08-17T13:38:16;6.38;;;3.85;;
41059;SDS011;26811;53.160;8.202;2023-08-17T13:43:19;6.28;;;4.47;;
41059;SDS011;26811;53.160;8.202;2023-08-17T13:48:19;6.25;;;4.85;;
41059;SDS011;26811;53.160;8.202;2023-08-17T13:53:20;6.18;;;4.60;;
41059;SDS011;26811;53.160;8.202;2023-08-17T13:58:20;7.28;;;5.38;;
41059;SDS011;26811;53.160;8.202;2023-08-17T14:03:21;9.80;;;6.53;;
41059;SDS011;26811;53.160;8.202;2023-08-17T14:08:22;11.32;;;7.35;;
41059;SDS011;26811;53.160;8.202;2023-08-17T14:13:23;11.90;;;9.20;;
41059;SDS011;26811;53.160;8.202;2023-08-17T14:18:23;13.70;;;9.32;;
41059;SDS011;26811;53.160;8.202;2023-08-17T14:23:24;11.65;;;9.35;;
41059;SDS011;26811;53.160;8.202;2023-08-17T14:28:24;13.73;;;9.95;;
41059;SDS011;26811;53.160;8.202;2023-08-17T14:33:26;7.00;;;6.27;;
41059;SDS011;26811;53.160;8.202;2023-08-17T14:38:26;7.85;;;5.53;;
41059;SDS011;26811;53.160;8.202;2023-08-17T14:43:27;6.18;;;5.57;;
41059;SDS011;26811;53.160;8.202;2023-08-17T14:48:27;6.78;;;6.15;;
41059;SDS011;26811;53.160;8.202;2023-08-17T14:53:28;4.00;;;3.60;;
41059;SDS011;26811;53.160;8.202;2023-08-17T14:58:30;2.47;;;2.20;;
41059;SDS011;26811;53.160;8.202;2023-08-17T15:03:30;3.63;;;1.80;;
41059;SDS011;26811;53.160;8.202;2023-08-17T15:08:31;6.28;;;2.15;;
41059;SDS011;26811;53.160;8.202;2023-08-17T15:13:32;4.35;;;1.92;;
41059;SDS011;26811;53.160;8.202;2023-08-17T15:18:32;2.35;;;1.80;;
41059;SDS011;26811;53.160;8.202;2023-08-17T15:23:33;2.45;;;2.13;;
41059;SDS011;26811;53.160;8.202;2023-08-17T15:28:33;3.03;;;2.38;;
41059;SDS011;26811;53.160;8.202;2023-08-17T15:33:34;5.38;;;2.47;;
41059;SDS011;26811;53.160;8.202;2023-08-17T15:38:35;4.60;;;2.53;;
41059;SDS011;26811;53.160;8.202;2023-08-17T15:43:35;2.83;;;1.80;;
41059;SDS011;26811;53.160;8.202;2023-08-17T15:48:36;8.45;;;2.00;;
41059;SDS011;26811;53.160;8.202;2023-08-17T15:53:36;3.75;;;1.80;;
41059;SDS011;26811;53.160;8.202;2023-08-17T16:03:40;4.03;;;1.70;;
41059;SDS011;26811;53.160;8.202;2023-08-17T16:08:41;2.22;;;1.65;;
41059;SDS011;26811;53.160;8.202;2023-08-17T16:13:42;2.70;;;1.67;;
41059;SDS011;26811;53.160;8.202;2023-08-17T16:18:43;4.18;;;1.70;;
41059;SDS011;26811;53.160;8.202;2023-08-17T16:23:44;2.42;;;1.70;;
41059;SDS011;26811;53.160;8.202;2023-08-17T16:28:44;4.13;;;2.17;;
41059;SDS011;26811;53.160;8.202;2023-08-17T16:33:45;2.17;;;1.98;;
41059;SDS011;26811;53.160;8.202;2023-08-17T16:38:46;5.38;;;1.92;;
41059;SDS011;26811;53.160;8.202;2023-08-17T16:43:46;5.80;;;2.75;;
41059;SDS011;26811;53.160;8.202;2023-08-17T16:48:47;6.78;;;2.30;;
41059;SDS011;26811;53.160;8.202;2023-08-17T16:53:48;3.20;;;2.40;;
41059;SDS011;26811;53.160;8.202;2023-08-17T16:58:49;4.57;;;2.13;;
41059;SDS011;26811;53.160;8.202;2023-08-17T17:03:50;3.92;;;2.42;;
41059;SDS011;26811;53.160;8.202;2023-08-17T17:08:51;9.25;;;2.58;;
41059;SDS011;26811;53.160;8.202;2023-08-17T17:13:53;4.95;;;2.33;;
41059;SDS011;26811;53.160;8.202;2023-08-17T17:18:54;4.22;;;2.40;;
41059;SDS011;26811;53.160;8.202;2023-08-17T17:23:54;2.72;;;2.30;;
41059;SDS011;26811;53.160;8.202;2023-08-17T17:28:55;2.88;;;2.20;;
41059;SDS011;26811;53.160;8.202;2023-08-17T17:33:55;2.35;;;2.05;;
41059;SDS011;26811;53.160;8.202;2023-08-17T17:38:56;3.22;;;2.15;;
41059;SDS011;26811;53.160;8.202;2023-08-17T17:43:56;2.88;;;1.98;;
41059;SDS011;26811;53.160;8.202;2023-08-17T17:48:57;4.25;;;2.55;;
41059;SDS011;26811;53.160;8.202;2023-08-17T17:53:58;4.53;;;1.95;;
41059;SDS011;26811;53.160;8.202;2023-08-17T17:58:59;3.15;;;1.95;;
41059;SDS011;26811;53.160;8.202;2023-08-17T18:04:00;2.75;;;1.70;;
41059;SDS011;26811;53.160;8.202;2023-08-17T18:09:01;2.03;;;1.70;;
41059;SDS011;26811;53.160;8.202;2023-08-17T18:14:05;2.05;;;1.80;;
41059;SDS011;26811;53.160;8.202;2023-08-17T18:19:07;3.72;;;1.88;;
41059;SDS011;26811;53.160;8.202;2023-08-17T18:24:07;2.35;;;1.80;;
41059;SDS011;26811;53.160;8.202;2023-08-17T18:29:08;4.82;;;2.00;;
41059;SDS011;26811;53.160;8.202;2023-08-17T18:34:09;2.55;;;1.60;;
41059;SDS011;26811;53.160;8.202;2023-08-17T18:39:09;2.38;;;1.55;;
41059;SDS011;26811;53.160;8.202;2023-08-17T18:44:10;3.05;;;1.63;;
41059;SDS011;26811;53.160;8.202;2023-08-17T18:49:11;2.05;;;1.70;;
41059;SDS011;26811;53.160;8.202;2023-08-17T18:54:11;3.40;;;1.70;;
41059;SDS011;26811;53.160;8.202;2023-08-17T18:59:12;3.53;;;1.55;;
41059;SDS011;26811;53.160;8.202;2023-08-17T19:04:12;4.07;;;1.70;;
41059;SDS011;26811;53.160;8.202;2023-08-17T19:09:12;4.80;;;1.90;;
41059;SDS011;26811;53.160;8.202;2023-08-17T19:14:13;2.97;;;1.60;;
41059;SDS011;26811;53.160;8.202;2023-08-17T19:24:16;3.97;;;1.70;;
41059;SDS011;26811;53.160;8.202;2023-08-17T19:29:20;5.18;;;1.85;;
41059;SDS011;26811;53.160;8.202;2023-08-17T19:34:20;6.57;;;1.80;;
41059;SDS011;26811;53.160;8.202;2023-08-17T19:39:21;1.80;;;1.60;;
41059;SDS011;26811;53.160;8.202;2023-08-17T19:44:21;4.50;;;1.70;;
41059;SDS011;26811;53.160;8.202;2023-08-17T19:49:22;4.20;;;1.75;;
41059;SDS011;26811;53.160;8.202;2023-08-17T19:54:23;1.88;;;1.70;;
41059;SDS011;26811;53.160;8.202;2023-08-17T19:59:24;2.72;;;1.40;;
41059;SDS011;26811;53.160;8.202;2023-08-17T20:04:25;5.78;;;1.70;;
41059;SDS011;26811;53.160;8.202;2023-08-17T20:09:25;1.98;;;1.50;;
41059;SDS011;26811;53.160;8.202;2023-08-17T20:14:26;2.30;;;1.60;;
41059;SDS011;26811;53.160;8.202;2023-08-17T20:19:27;2.38;;;1.70;;
41059;SDS011;26811;53.160;8.202;2023-08-17T20:24:29;3.58;;;1.63;;
41059;SDS011;26811;53.160;8.202;2023-08-17T20:29:30;1.92;;;1.67;;
41059;SDS011;26811;53.160;8.202;2023-08-17T20:34:31;8.50;;;2.08;;
41059;SDS011;26811;53.160;8.202;2023-08-17T20:39:35;2.58;;;1.58;;
41059;SDS011;26811;53.160;8.202;2023-08-17T20:44:37;2.78;;;1.67;;
41059;SDS011;26811;53.160;8.202;2023-08-17T20:49:38;5.05;;;1.80;;
41059;SDS011;26811;53.160;8.202;2023-08-17T20:54:42;4.53;;;1.75;;
41059;SDS011;26811;53.160;8.202;2023-08-17T20:59:43;1.98;;;1.70;;
41059;SDS011;26811;53.160;8.202;2023-08-17T21:04:44;4.63;;;2.13;;
41059;SDS011;26811;53.160;8.202;2023-08-17T21:09:44;3.55;;;2.08;;
41059;SDS011;26811;53.160;8.202;2023-08-17T21:14:45;6.00;;;2.00;;
41059;SDS011;26811;53.160;8.202;2023-08-17T21:19:47;4.83;;;2.13;;
41059;SDS011;26811;53.160;8.202;2023-08-17T21:24:47;1.85;;;1.55;;
41059;SDS011;26811;53.160;8.202;2023-08-17T21:29:49;4.68;;;2.10;;
41059;SDS011;26811;53.160;8.202;2023-08-17T21:34:50;3.47;;;2.13;;
41059;SDS011;26811;53.160;8.202;2023-08-17T21:39:51;4.28;;;1.90;;
41059;SDS011;26811;53.160;8.202;2023-08-17T21:44:51;2.67;;;2.00;;
41059;SDS011;26811;53.160;8.202;2023-08-17T21:49:53;3.30;;;2.03;;
41059;SDS011;26811;53.160;8.202;2023-08-17T21:54:53;3.42;;;2.10;;
41059;SDS011;26811;53.160;8.202;2023-08-17T21:59:54;7.22;;;2.13;;
41059;SDS011;26811;53.160;8.202;2023-08-17T22:04:54;4.13;;;2.00;;
41059;SDS011;26811;53.160;8.202;2023-08-17T22:09:55;2.70;;;2.10;;
41059;SDS011;26811;53.160;8.202;2023-08-17T22:14:55;2.97;;;2.10;;
41059;SDS011;26811;53.160;8.202;2023-08-17T22:19:56;7.75;;;2.75;;
41059;SDS011;26811;53.160;8.202;2023-08-17T22:24:57;4.53;;;2.40;;
41059;SDS011;26811;53.160;8.202;2023-08-17T22:29:57;4.00;;;2.40;;
41059;SDS011;26811;53.160;8.202;2023-08-17T22:34:58;4.78;;;2.50;;
41059;SDS011;26811;53.160;8.202;2023-08-17T22:40:02;5.50;;;2.72;;
41059;SDS011;26811;53.160;8.202;2023-08-17T22:45:03;5.55;;;3.30;;
41059;SDS011;26811;53.160;8.202;2023-08-17T22:50:04;8.68;;;2.60;;
41059;SDS011;26811;53.160;8.202;2023-08-17T22:55:05;2.75;;;2.42;;
41059;SDS011;26811;53.160;8.202;2023-08-17T23:00:06;4.78;;;2.40;;
41059;SDS011;26811;53.160;8.202;2023-08-17T23:05:09;4.95;;;2.70;;
41059;SDS011;26811;53.160;8.202;2023-08-17T23:10:09;6.70;;;2.55;;
41059;SDS011;26811;53.160;8.202;2023-08-17T23:15:10;7.20;;;2.67;;
41059;SDS011;26811;53.160;8.202;2023-08-17T23:20:11;3.47;;;2.20;;
41059;SDS011;26811;53.160;8.202;2023-08-17T23:25:12;3.63;;;2.53;;
41059;SDS011;26811;53.160;8.202;2023-08-17T23:30:12;8.88;;;2.92;;
41059;SDS011;26811;53.160;8.202;2023-08-17T23:35:13;3.67;;;2.60;;
41059;SDS011;26811;53.160;8.202;2023-08-17T23:40:13;4.75;;;2.60;;
41059;SDS011;26811;53.160;8.202;2023-08-17T23:45:14;3.65;;;2.90;;
41059;SDS011;26811;53.160;8.202;2023-08-17T23:50:14;2.95;;;2.70;;
41059;SDS011;26811;53.160;8.202;2023-08-17T23:55:15;4.93;;;3.20;;
